Terminal Aerodrome Forecast
Issued by NWS Jackson, MS

Home | Current Version | Previous Version | Text Only | Print | Product List | Glossary On
Versions: 1 2 3 4 5 6 7 8 9 10 11 12 13 14 15 16 17
000
FTUS44 KJAN 142300 RRA
TAFMEI
TAF
KMEI 142344Z 1500/1524 02003KT P6SM FEW030 SCT250
     FM150900 VRB03KT 5SM BR SCT030 BKN250
     FM151400 04003KT P6SM SCT030 SCT100 BKN250
     FM151800 04005KT P6SM VCTS SCT030 BKN050CB BKN250=

USA.gov is the U.S. government's official web portal to all federal, state and local government web resources and services.